Mansfield Lahm Regional Airport
KMFD : now visible

Airfield :











YOU CAN JOIN US ON...

 
LOGIN :

Register | Disclaimer

   EN    FR    IT 

 









Legend :    VFR   Marginal VFR   IFR   Intensive IFR   Very Intensive IFR
Visi :
Ceiling :
>= 8 km
>= 3000ft
5 to 8 km
1000 to 3000 ft
1500m to 5 km
500 to 1000 ft
800 to 1500m
200 to 500 ft
< 800m
< 200 ft
Symbols :   Thunderstorms  Fog  Heavy snow  Heavy precipitations  Wind > 20 kt






- Airport Elevation : 1297 ft


KMFD - Mansfield Lahm Regional

CURRENT METAR :
  • 241152Z 32009KT 10SM OVC025 06/03 A3015 RMK AO2 SLP211 60002 70023 T00560033 10094 20056 51017 $

EXPIRED METARs :
  • 241052Z 32010KT 10SM OVC023 06/04 A3015 RMK AO2 SLP209 T00610039 $
  • 240952Z 30011KT 10SM FEW015 OVC023 07/04 A3012 RMK AO2 SLP199 T00670044 $

TAF KMFD
Valid from the 24 at 12:00 until the 25 at 12:00 UTC


241122Z 2412/2512 34010KT P6SM BKN025
TEMPO 2412/2416 BKN015
FM242100 01007KT P6SM SCT250
KZOB FIR / North America



MET'MAP, your aeronautical weather chart ! - Copyright ORBIFLY December 2007 - Disclaimer

ORBIFLY MET'MAP TEAM :

Programming & Development : Alexandra Zaïnal
Concept & original design : Baudouin d'Aumeries
Assistance for programming : Marc-Olivier Méhu
Technical & hardware support : Manuel Goepfert

Contact : metmap@orbifly.com




SOURCES & CREDITS :

   NOAA       Earth
Advisory